createdAt,value
2022-12-27T00:00:14.234Z,90.21
2022-12-27T00:02:42.155Z,90.55
2022-12-27T00:05:10.247Z,91.23
2022-12-27T00:07:37.351Z,91.96
2022-12-27T00:10:05.645Z,92.40
2022-12-27T00:12:32.617Z,92.02
2022-12-27T00:14:59.335Z,92.35
2022-12-27T00:17:26.593Z,92.44
2022-12-27T00:19:53.353Z,92.48
2022-12-27T00:22:20.144Z,92.50
2022-12-27T00:24:47.824Z,92.40
2022-12-27T00:27:14.685Z,93.06
2022-12-27T00:29:41.446Z,93.06
2022-12-27T00:32:08.314Z,93.40
2022-12-27T00:34:35.287Z,93.41
2022-12-27T00:37:02.045Z,92.97
2022-12-27T00:39:28.878Z,93.37
2022-12-27T00:41:55.624Z,93.67
2022-12-27T00:44:22.409Z,93.66
2022-12-27T00:46:49.174Z,93.24
2022-12-27T00:49:15.951Z,93.41
2022-12-27T00:51:42.692Z,93.76
2022-12-27T00:54:09.496Z,94.03
2022-12-27T00:56:36.339Z,93.87
2022-12-27T00:59:04.997Z,94.03
2022-12-27T01:01:35.961Z,94.13
2022-12-27T01:04:03.693Z,94.07
2022-12-27T01:06:32.871Z,94.25
2022-12-27T01:09:01.396Z,94.51
2022-12-27T01:11:29.162Z,94.60
2022-12-27T01:14:01.224Z,94.41
2022-12-27T01:16:30.258Z,94.91
2022-12-27T01:18:57.263Z,94.47
2022-12-27T01:21:25.200Z,94.52
2022-12-27T01:23:52.458Z,94.47
2022-12-27T01:26:21.077Z,94.38
2022-12-27T01:28:48.635Z,94.21
2022-12-27T01:31:18.636Z,94.24
2022-12-27T01:33:45.918Z,94.33
2022-12-27T01:36:20.053Z,94.41
2022-12-27T01:38:50.546Z,94.00
2022-12-27T01:41:42.263Z,94.07
2022-12-27T01:44:52.262Z,93.96
2022-12-27T01:47:46.954Z,93.66
2022-12-27T01:50:31.737Z,93.71
2022-12-27T01:53:18.929Z,93.58
2022-12-27T01:55:54.686Z,93.90
2022-12-27T01:58:54.916Z,93.90
2022-12-27T02:01:26.813Z,93.49
2022-12-27T02:04:02.452Z,93.69
2022-12-27T02:06:31.254Z,93.46
2022-12-27T02:09:16.616Z,93.63
2022-12-27T02:11:55.210Z,93.77
2022-12-27T02:14:35.613Z,93.51
2022-12-27T02:17:06.666Z,93.50
2022-12-27T02:19:42.512Z,93.52
2022-12-27T02:22:27.501Z,93.33
2022-12-27T02:25:28.138Z,93.42
2022-12-27T02:28:15.042Z,92.97
2022-12-27T02:30:46.251Z,93.29
2022-12-27T02:33:21.679Z,93.33
2022-12-27T02:35:59.530Z,92.98
2022-12-27T02:38:37.623Z,92.88
2022-12-27T02:41:26.750Z,92.68
2022-12-27T02:44:13.999Z,92.65
2022-12-27T02:46:59.172Z,92.63
2022-12-27T02:49:53.478Z,92.69
2022-12-27T02:53:03.688Z,92.56
2022-12-27T02:56:08.981Z,92.45
2022-12-27T02:59:04.935Z,92.60
2022-12-27T03:01:52.975Z,92.50
2022-12-27T03:04:44.443Z,92.60
2022-12-27T03:07:20.045Z,92.78
2022-12-27T03:10:12.951Z,92.55
2022-12-27T03:13:13.151Z,92.72
2022-12-27T03:15:56.496Z,92.48
2022-12-27T03:18:32.412Z,92.66
2022-12-27T03:21:19.595Z,92.64
2022-12-27T03:24:07.991Z,93.02
2022-12-27T03:26:37.772Z,92.71
2022-12-27T03:29:25.205Z,92.87
2022-12-27T03:32:15.224Z,92.67
2022-12-27T03:34:49.540Z,92.80
2022-12-27T03:37:41.478Z,93.00
2022-12-27T03:40:13.213Z,93.09
2022-12-27T03:43:08.621Z,93.06
2022-12-27T03:46:16.284Z,92.70
2022-12-27T03:49:38.679Z,92.59
2022-12-27T03:52:08.032Z,92.83
2022-12-27T03:54:39.428Z,92.65
2022-12-27T03:57:10.324Z,92.28
2022-12-27T03:59:37.494Z,92.27
2022-12-27T04:02:05.049Z,92.44
2022-12-27T04:04:31.983Z,92.67
2022-12-27T04:06:58.830Z,92.38
2022-12-27T04:09:44.355Z,92.25
2022-12-27T04:12:30.121Z,92.09
2022-12-27T04:15:15.191Z,91.94
2022-12-27T04:18:00.894Z,91.54
2022-12-27T04:20:46.068Z,91.74
2022-12-27T04:23:31.311Z,91.96
2022-12-27T04:26:16.616Z,92.24
2022-12-27T04:29:01.739Z,92.11
2022-12-27T04:31:46.843Z,92.29
2022-12-27T04:34:32.147Z,92.43
2022-12-27T04:36:58.950Z,92.70
2022-12-27T04:39:25.667Z,92.96
2022-12-27T04:42:10.942Z,93.08
2022-12-27T04:44:56.169Z,93.07
2022-12-27T04:47:42.131Z,93.26
2022-12-27T04:50:47.996Z,92.71
2022-12-27T04:53:39.322Z,92.63
2022-12-27T04:56:06.812Z,92.78
2022-12-27T04:58:33.675Z,93.05
2022-12-27T05:01:22.406Z,93.06
2022-12-27T05:03:51.986Z,93.01
2022-12-27T05:06:19.258Z,93.50
2022-12-27T05:09:04.788Z,93.67
2022-12-27T05:11:49.999Z,94.01
2022-12-27T05:14:16.819Z,94.15
2022-12-27T05:16:44.744Z,94.27
2022-12-27T05:19:13.463Z,94.45
2022-12-27T05:22:05.074Z,94.38
2022-12-27T05:24:51.593Z,94.84
2022-12-27T05:27:18.397Z,94.21
2022-12-27T05:29:45.992Z,94.69
2022-12-27T05:32:13.833Z,94.48
2022-12-27T05:34:41.136Z,94.67
2022-12-27T05:37:08.428Z,94.70
2022-12-27T05:39:35.131Z,94.96
2022-12-27T05:42:02.123Z,95.05
2022-12-27T05:44:29.038Z,94.84
2022-12-27T05:46:56.244Z,94.69
2022-12-27T05:49:23.263Z,94.81
2022-12-27T05:51:50.037Z,95.54
2022-12-27T05:54:16.891Z,95.34
2022-12-27T05:56:43.658Z,95.17
2022-12-27T05:59:10.426Z,95.44
2022-12-27T06:01:37.276Z,95.52
2022-12-27T06:04:04.147Z,95.88
2022-12-27T06:06:30.944Z,96.03
2022-12-27T06:08:57.728Z,95.98
2022-12-27T06:11:24.565Z,96.94
2022-12-27T06:13:53.610Z,96.56
2022-12-27T06:16:22.355Z,96.86
2022-12-27T06:18:49.461Z,96.71
2022-12-27T06:21:21.301Z,97.15
2022-12-27T06:23:48.883Z,97.07
2022-12-27T06:26:21.751Z,97.65
2022-12-27T06:28:49.825Z,97.37
2022-12-27T06:31:20.348Z,97.32
2022-12-27T06:33:51.415Z,97.07
2022-12-27T06:36:23.729Z,97.26
2022-12-27T06:38:50.750Z,97.14
2022-12-27T06:41:19.161Z,97.16
2022-12-27T06:43:46.765Z,96.96
2022-12-27T06:46:17.825Z,97.36
2022-12-27T06:48:45.781Z,97.28
2022-12-27T06:51:14.283Z,97.18
2022-12-27T06:53:41.055Z,97.01
2022-12-27T06:56:16.679Z,97.30
2022-12-27T06:58:43.608Z,97.52
2022-12-27T07:01:16.310Z,97.38
2022-12-27T07:03:43.422Z,97.02
2022-12-27T07:06:11.812Z,97.45
2022-12-27T07:08:38.639Z,97.93
2022-12-27T07:11:10.911Z,97.64
2022-12-27T07:13:41.080Z,98.05
2022-12-27T07:16:09.509Z,97.81
2022-12-27T07:18:37.298Z,98.03
2022-12-27T07:21:09.130Z,98.20
2022-12-27T07:23:36.786Z,98.08
2022-12-27T07:26:05.308Z,98.56
2022-12-27T07:28:32.582Z,98.37
2022-12-27T07:30:59.746Z,98.03
2022-12-27T07:33:26.752Z,97.97
2022-12-27T07:36:01.350Z,98.41
2022-12-27T07:38:28.345Z,98.53
2022-12-27T07:40:58.147Z,98.16
2022-12-27T07:43:24.888Z,98.51
2022-12-27T07:45:51.674Z,98.23
2022-12-27T07:48:18.714Z,98.63
2022-12-27T07:50:54.605Z,98.86
2022-12-27T07:53:21.569Z,98.99
2022-12-27T07:55:48.822Z,98.53
2022-12-27T07:58:15.614Z,98.74
2022-12-27T08:00:42.514Z,98.60
2022-12-27T08:03:09.344Z,98.43
2022-12-27T08:05:36.124Z,98.29
2022-12-27T08:08:05.232Z,98.18
2022-12-27T08:10:33.972Z,98.61
2022-12-27T08:13:00.689Z,99.03
2022-12-27T08:15:27.448Z,98.39
2022-12-27T08:17:54.194Z,98.25
2022-12-27T08:20:20.987Z,98.93
2022-12-27T08:22:47.750Z,98.92
2022-12-27T08:25:14.484Z,98.60
2022-12-27T08:27:41.219Z,99.08
2022-12-27T08:30:08.706Z,99.23
2022-12-27T08:32:35.492Z,99.57
2022-12-27T08:35:25.027Z,99.81
2022-12-27T08:37:48.946Z,99.67
2022-12-27T08:40:15.713Z,100.00
2022-12-27T08:42:42.401Z,99.85
2022-12-27T08:45:09.677Z,99.59
2022-12-27T08:47:37.610Z,99.44
2022-12-27T08:50:05.195Z,99.33
2022-12-27T08:52:32.513Z,99.05
2022-12-27T08:54:59.223Z,99.32
2022-12-27T08:57:25.953Z,99.23
2022-12-27T08:59:52.755Z,99.20
2022-12-27T09:02:19.682Z,99.36
2022-12-27T09:04:47.333Z,99.13
2022-12-27T09:07:14.257Z,99.21
2022-12-27T09:09:40.982Z,99.67
2022-12-27T09:12:09.441Z,99.67
2022-12-27T09:14:36.315Z,99.51
2022-12-27T09:17:03.129Z,99.90
2022-12-27T09:19:29.852Z,99.41
2022-12-27T09:21:56.538Z,99.55
2022-12-27T09:24:23.341Z,99.42
2022-12-27T09:26:50.139Z,99.53
2022-12-27T09:29:17.144Z,99.78
2022-12-27T09:31:43.929Z,100.00
2022-12-27T09:34:11.453Z,99.96
2022-12-27T09:36:39.534Z,100.00
2022-12-27T09:39:06.658Z,99.87
2022-12-27T09:44:56.783Z,100.00
2022-12-27T09:47:47.997Z,100.00
2022-12-27T09:50:38.043Z,100.00
2022-12-27T09:53:18.830Z,100.00
2022-12-27T09:55:53.085Z,100.00
2022-12-27T09:58:34.986Z,100.00
2022-12-27T10:01:02.712Z,100.00
2022-12-27T10:03:30.682Z,100.00
2022-12-27T10:06:22.942Z,100.00
2022-12-27T10:08:58.485Z,100.00
2022-12-27T10:12:03.740Z,100.00
2022-12-27T10:14:59.810Z,100.00
2022-12-27T10:17:38.922Z,100.00
2022-12-27T10:20:15.706Z,100.00
2022-12-27T10:22:45.195Z,100.00
2022-12-27T10:25:14.317Z,100.00
2022-12-27T10:27:42.220Z,100.00
2022-12-27T10:30:20.590Z,100.00
2022-12-27T10:32:47.975Z,100.00
2022-12-27T10:35:17.447Z,100.00
2022-12-27T10:37:45.398Z,100.00
2022-12-27T10:40:21.044Z,100.00
2022-12-27T10:43:11.074Z,100.00
2022-12-27T10:45:42.821Z,100.00
2022-12-27T10:48:17.050Z,100.00
2022-12-27T10:50:50.796Z,100.00
2022-12-27T10:53:43.018Z,100.00
2022-12-27T10:56:28.418Z,100.00
2022-12-27T10:59:17.349Z,100.00
2022-12-27T11:01:46.266Z,100.00
2022-12-27T11:04:21.524Z,100.00
2022-12-27T11:07:12.554Z,100.00
2022-12-27T11:09:50.268Z,100.00
2022-12-27T11:12:26.134Z,100.00
2022-12-27T11:15:02.516Z,100.00
2022-12-27T11:17:42.323Z,100.00
2022-12-27T11:20:12.404Z,100.00
2022-12-27T11:22:57.926Z,100.00
2022-12-27T11:25:26.942Z,100.00
2022-12-27T11:27:59.549Z,100.00
2022-12-27T11:30:31.739Z,100.00
2022-12-27T11:33:04.113Z,100.00
2022-12-27T11:35:33.923Z,100.00
2022-12-27T11:38:00.818Z,100.00
2022-12-27T11:40:34.549Z,100.00
2022-12-27T11:43:09.475Z,100.00
2022-12-27T11:45:43.439Z,100.00
2022-12-27T11:48:31.126Z,100.00
2022-12-27T11:51:20.166Z,100.00
2022-12-27T11:54:24.216Z,100.00
2022-12-27T11:56:59.871Z,100.00
2022-12-27T12:00:17.531Z,100.00
2022-12-27T12:03:27.484Z,100.00
2022-12-27T12:06:00.032Z,100.00
2022-12-27T12:09:07.630Z,100.00
2022-12-27T12:12:03.592Z,100.00
2022-12-27T12:15:07.742Z,100.00
2022-12-27T12:18:01.940Z,100.00
2022-12-27T12:21:00.147Z,100.00
2022-12-27T12:23:47.143Z,100.00
2022-12-27T12:26:18.100Z,100.00
2022-12-27T12:29:11.159Z,100.00
2022-12-27T12:32:06.916Z,100.00
2022-12-27T12:35:07.088Z,100.00
2022-12-27T12:37:45.563Z,100.00
2022-12-27T12:40:40.124Z,100.00
2022-12-27T12:43:55.587Z,100.00
2022-12-27T12:46:42.438Z,100.00
2022-12-27T12:49:28.181Z,100.00
2022-12-27T12:52:19.549Z,100.00
2022-12-27T12:55:14.262Z,100.00
2022-12-27T12:57:59.868Z,100.00
2022-12-27T13:00:51.089Z,100.00
2022-12-27T13:03:17.915Z,100.00
2022-12-27T13:06:07.594Z,100.00
2022-12-27T13:08:54.728Z,100.00
2022-12-27T13:11:46.586Z,100.00
2022-12-27T13:14:16.208Z,100.00
2022-12-27T13:17:08.214Z,100.00
2022-12-27T13:19:47.241Z,100.00
2022-12-27T13:22:30.252Z,100.00
2022-12-27T13:25:27.855Z,100.00
2022-12-27T13:28:15.931Z,100.00
2022-12-27T13:31:08.684Z,100.00
2022-12-27T13:34:12.672Z,100.00
2022-12-27T13:36:42.012Z,100.00
2022-12-27T13:39:36.618Z,100.00
2022-12-27T13:42:15.396Z,100.00
2022-12-27T13:44:57.924Z,100.00
2022-12-27T13:48:01.738Z,100.00
2022-12-27T13:50:52.370Z,100.00
2022-12-27T13:53:52.615Z,100.00
2022-12-27T13:56:53.928Z,100.00
2022-12-27T14:00:01.230Z,100.00
2022-12-27T14:02:46.304Z,100.00
2022-12-27T14:05:37.714Z,100.00
2022-12-27T14:08:19.036Z,100.00
2022-12-27T14:10:55.303Z,100.00
2022-12-27T14:13:36.517Z,100.00
2022-12-27T14:16:36.956Z,100.00
2022-12-27T14:19:25.223Z,100.00
2022-12-27T14:22:10.662Z,100.00
2022-12-27T14:25:11.723Z,100.00
2022-12-27T14:28:17.040Z,100.00
2022-12-27T14:31:14.955Z,100.00
2022-12-27T14:34:19.453Z,100.00
2022-12-27T14:37:23.519Z,100.00
2022-12-27T14:40:18.171Z,100.00
2022-12-27T14:43:22.968Z,100.00
2022-12-27T14:46:30.293Z,100.00
2022-12-27T14:49:35.706Z,100.00
2022-12-27T14:52:14.403Z,100.00
2022-12-27T14:55:18.132Z,100.00
2022-12-27T14:58:17.347Z,100.00
2022-12-27T15:01:08.476Z,100.00
2022-12-27T15:04:00.197Z,100.00
2022-12-27T15:07:15.638Z,100.00
2022-12-27T15:09:55.363Z,100.00
2022-12-27T15:12:27.930Z,100.00
2022-12-27T15:14:55.221Z,100.00
2022-12-27T15:17:39.752Z,100.00
2022-12-27T15:20:12.928Z,100.00
2022-12-27T15:22:51.653Z,100.00
2022-12-27T15:25:28.711Z,100.00
2022-12-27T15:28:14.193Z,100.00
2022-12-27T15:30:59.658Z,100.00
2022-12-27T15:33:34.074Z,100.00
2022-12-27T15:36:07.711Z,100.00
2022-12-27T15:39:01.134Z,100.00
2022-12-27T15:41:56.019Z,100.00
2022-12-27T15:44:40.308Z,100.00
2022-12-27T15:47:15.071Z,100.00
2022-12-27T15:50:07.776Z,100.00
2022-12-27T15:52:46.918Z,100.00
2022-12-27T15:55:35.553Z,100.00
2022-12-27T15:58:24.057Z,100.00
2022-12-27T16:01:29.173Z,100.00
2022-12-27T16:03:58.486Z,100.00
2022-12-27T16:06:34.607Z,100.00
2022-12-27T16:09:28.268Z,100.00
2022-12-27T16:12:07.307Z,100.00
2022-12-27T16:14:41.075Z,100.00
2022-12-27T16:17:23.168Z,100.00
2022-12-27T16:20:14.352Z,100.00
2022-12-27T16:23:02.703Z,100.00
2022-12-27T16:25:41.209Z,100.00
2022-12-27T16:28:24.695Z,100.00
2022-12-27T16:30:54.119Z,100.00
2022-12-27T16:33:26.801Z,100.00
2022-12-27T16:36:02.773Z,100.00
2022-12-27T16:38:30.948Z,100.00
2022-12-27T16:41:24.826Z,100.00
2022-12-27T16:44:00.569Z,100.00
2022-12-27T16:46:30.036Z,100.00
2022-12-27T16:49:18.391Z,100.00
2022-12-27T16:52:07.241Z,100.00
2022-12-27T16:55:00.058Z,100.00
2022-12-27T16:57:26.736Z,100.00
2022-12-27T17:00:02.042Z,100.00
2022-12-27T17:02:37.321Z,100.00
2022-12-27T17:05:14.549Z,100.00
2022-12-27T17:08:08.405Z,100.00
2022-12-27T17:10:44.664Z,100.00
2022-12-27T17:13:39.133Z,100.00
2022-12-27T17:16:07.667Z,100.00
2022-12-27T17:18:58.052Z,100.00
2022-12-27T17:21:39.482Z,100.00
2022-12-27T17:24:15.298Z,100.00
2022-12-27T17:27:10.164Z,100.00
2022-12-27T17:29:42.942Z,100.00
2022-12-27T17:32:19.644Z,100.00
2022-12-27T17:35:01.221Z,100.00
2022-12-27T17:37:37.890Z,100.00
2022-12-27T17:40:32.516Z,100.00
2022-12-27T17:43:39.703Z,100.00
2022-12-27T17:46:30.850Z,100.00
2022-12-27T17:48:58.263Z,100.00
2022-12-27T17:51:28.455Z,100.00
2022-12-27T17:54:14.860Z,100.00
2022-12-27T17:57:04.321Z,100.00
2022-12-27T17:59:33.007Z,100.00
2022-12-27T18:02:06.972Z,100.00
2022-12-27T18:04:47.100Z,100.00
2022-12-27T18:07:15.469Z,100.00
2022-12-27T18:09:53.885Z,100.00
2022-12-27T18:12:24.513Z,100.00
2022-12-27T18:15:19.376Z,100.00
2022-12-27T18:18:01.580Z,100.00
2022-12-27T18:20:29.742Z,100.00
2022-12-27T18:23:02.551Z,100.00
2022-12-27T18:25:44.653Z,100.00
2022-12-27T18:28:11.189Z,100.00
2022-12-27T18:30:43.175Z,100.00
2022-12-27T18:33:16.413Z,100.00
2022-12-27T18:35:47.991Z,100.00
2022-12-27T18:38:30.084Z,100.00
2022-12-27T18:41:07.266Z,100.00
2022-12-27T18:43:35.632Z,100.00
2022-12-27T18:46:04.259Z,100.00
2022-12-27T18:48:35.557Z,100.00
2022-12-27T18:51:03.151Z,100.00
2022-12-27T18:53:38.772Z,100.00
2022-12-27T18:56:15.788Z,100.00
2022-12-27T18:59:06.119Z,100.00
2022-12-27T19:01:44.094Z,100.00
2022-12-27T19:04:17.261Z,100.00
2022-12-27T19:07:09.578Z,100.00
2022-12-27T19:09:39.365Z,100.00
2022-12-27T19:12:29.803Z,100.00
2022-12-27T19:14:57.293Z,100.00
2022-12-27T19:17:29.784Z,100.00
2022-12-27T19:20:02.960Z,100.00
2022-12-27T19:22:31.599Z,100.00
2022-12-27T19:25:00.335Z,100.00
2022-12-27T19:27:27.111Z,100.00
2022-12-27T19:29:53.900Z,100.00
2022-12-27T19:32:40.643Z,100.00
2022-12-27T19:35:08.639Z,100.00
2022-12-27T19:37:35.760Z,100.00
2022-12-27T19:40:02.988Z,100.00
2022-12-27T19:42:34.841Z,100.00
2022-12-27T19:45:01.854Z,100.00
2022-12-27T19:47:28.924Z,100.00
2022-12-27T19:49:55.723Z,100.00
2022-12-27T19:52:26.058Z,100.00
2022-12-27T19:55:04.679Z,100.00
2022-12-27T19:57:31.457Z,100.00
2022-12-27T19:59:58.286Z,100.00
2022-12-27T20:02:25.409Z,100.00
2022-12-27T20:04:52.488Z,100.00
2022-12-27T20:07:25.466Z,100.00
2022-12-27T20:09:52.402Z,100.00
2022-12-27T20:12:19.224Z,100.00
2022-12-27T20:14:47.392Z,100.00
2022-12-27T20:17:14.497Z,100.00
2022-12-27T20:19:41.380Z,100.00
2022-12-27T20:22:10.938Z,100.00
2022-12-27T20:24:37.998Z,100.00
2022-12-27T20:27:05.728Z,100.00
2022-12-27T20:29:32.605Z,100.00
2022-12-27T20:31:59.573Z,100.00
2022-12-27T20:34:26.471Z,100.00
2022-12-27T20:36:55.447Z,100.00
2022-12-27T20:39:22.299Z,100.00
2022-12-27T20:41:49.108Z,100.00
2022-12-27T20:44:16.005Z,100.00
2022-12-27T20:46:42.809Z,100.00
2022-12-27T20:49:09.512Z,100.00
2022-12-27T20:51:37.254Z,100.00
2022-12-27T20:54:04.328Z,100.00
2022-12-27T20:56:31.260Z,100.00
2022-12-27T20:58:58.075Z,100.00
2022-12-27T21:01:26.058Z,100.00
2022-12-27T21:03:55.990Z,100.00
2022-12-27T21:06:28.428Z,100.00
2022-12-27T21:08:57.687Z,100.00
2022-12-27T21:11:33.721Z,100.00
2022-12-27T21:14:02.506Z,100.00
2022-12-27T21:16:31.511Z,100.00
2022-12-27T21:19:02.755Z,100.00
2022-12-27T21:21:29.578Z,100.00
2022-12-27T21:23:58.188Z,100.00
2022-12-27T21:26:27.846Z,100.00
2022-12-27T21:28:55.518Z,100.00
2022-12-27T21:31:22.873Z,100.00
2022-12-27T21:33:49.764Z,100.00
2022-12-27T21:36:20.396Z,100.00
2022-12-27T21:38:47.733Z,100.00
2022-12-27T21:41:20.410Z,100.00
2022-12-27T21:43:49.190Z,100.00
2022-12-27T21:46:19.970Z,100.00
2022-12-27T21:48:47.600Z,100.00
2022-12-27T21:51:18.654Z,100.00
2022-12-27T21:53:45.806Z,100.00
2022-12-27T21:56:15.456Z,100.00
2022-12-27T21:58:43.050Z,100.00
2022-12-27T22:01:24.778Z,100.00
2022-12-27T22:03:53.463Z,100.00
2022-12-27T22:06:26.174Z,100.00
2022-12-27T22:08:59.547Z,100.00
2022-12-27T22:11:28.061Z,100.00
2022-12-27T22:13:55.421Z,100.00
2022-12-27T22:16:24.911Z,100.00
2022-12-27T22:18:52.196Z,100.00
2022-12-27T22:21:21.368Z,100.00
2022-12-27T22:23:50.417Z,100.00
2022-12-27T22:26:22.912Z,100.00
2022-12-27T22:28:49.904Z,100.00
2022-12-27T22:31:22.292Z,100.00
2022-12-27T22:33:50.029Z,100.00
2022-12-27T22:36:22.470Z,100.00
2022-12-27T22:38:53.638Z,100.00
2022-12-27T22:41:31.979Z,100.00
2022-12-27T22:44:04.774Z,100.00
2022-12-27T22:46:58.756Z,100.00
2022-12-27T22:49:19.253Z,100.00
2022-12-27T22:51:45.994Z,100.00
2022-12-27T22:54:12.723Z,100.00
2022-12-27T22:56:41.962Z,100.00
2022-12-27T22:59:13.605Z,100.00
2022-12-27T23:01:41.520Z,100.00
2022-12-27T23:04:11.122Z,100.00
2022-12-27T23:06:39.689Z,100.00
2022-12-27T23:09:06.630Z,100.00
2022-12-27T23:11:36.520Z,100.00
2022-12-27T23:14:06.640Z,100.00
2022-12-27T23:16:37.671Z,100.00
2022-12-27T23:19:04.922Z,100.00
2022-12-27T23:21:31.925Z,100.00
2022-12-27T23:23:58.678Z,100.00
2022-12-27T23:26:25.481Z,100.00
2022-12-27T23:28:53.047Z,100.00
2022-12-27T23:31:22.287Z,100.00
2022-12-27T23:33:49.676Z,100.00
2022-12-27T23:36:16.745Z,100.00
2022-12-27T23:38:44.331Z,100.00
2022-12-27T23:41:19.242Z,100.00
2022-12-27T23:43:55.383Z,100.00
2022-12-27T23:46:26.623Z,100.00
2022-12-27T23:48:54.064Z,100.00
2022-12-27T23:51:21.875Z,100.00
2022-12-27T23:53:49.093Z,100.00
2022-12-27T23:56:18.735Z,100.00
2022-12-27T23:58:46.797Z,100.00
